Time;durP1;ratioP1;P1;durP2;ratioP2;P2;SDS_P1;SDS_P2;PMS_P1;PMS_P2;Temp;Humidity;BMP_temperature;BMP_pressure;BME280_temperature;BME280_humidity;BME280_pressure;Samples;Min_cycle;Max_cycle;Signal;HPM_P1;HPM_P2
2021/06/25 00:01:56;;;;;;;7.80;5.65;;;15.50;99.90;;;;;;5050241;28;20025;-41
2021/06/25 00:04:24;;;;;;;6.88;5.57;;;15.50;99.90;;;;;;5052955;28;20025;-42
2021/06/25 00:06:50;;;;;;;8.75;6.28;;;15.40;99.90;;;;;;5052490;28;20036;-43
2021/06/25 00:09:15;;;;;;;6.85;6.13;;;15.40;99.90;;;;;;5050495;28;20044;-42
2021/06/25 00:11:41;;;;;;;6.57;5.95;;;15.40;99.90;;;;;;5055031;28;20067;-41
2021/06/25 00:14:07;;;;;;;6.35;5.43;;;15.30;99.90;;;;;;5047936;28;20124;-42
2021/06/25 00:16:32;;;;;;;6.68;5.80;;;15.30;99.90;;;;;;5059701;28;20051;-41
2021/06/25 00:19:01;;;;;;;7.45;6.32;;;15.30;99.90;;;;;;5064903;28;20472;-42
2021/06/25 00:21:26;;;;;;;6.80;5.70;;;15.20;99.90;;;;;;5055472;28;20035;-42
2021/06/25 00:23:52;;;;;;;6.40;5.80;;;15.20;99.90;;;;;;5066916;28;20411;-42
2021/06/25 00:26:17;;;;;;;8.52;6.00;;;15.20;99.90;;;;;;5053816;28;20021;-40
2021/06/25 00:28:45;;;;;;;6.70;5.97;;;15.10;99.90;;;;;;5066865;28;20499;-43
2021/06/25 00:31:11;;;;;;;7.57;6.47;;;15.10;99.90;;;;;;5053836;28;20025;-42
2021/06/25 00:33:36;;;;;;;6.57;5.95;;;15.00;99.90;;;;;;5066543;28;20036;-42
2021/06/25 00:36:02;;;;;;;6.95;6.25;;;15.00;99.90;;;;;;5054637;28;20017;-42
2021/06/25 00:38:28;;;;;;;7.57;6.80;;;14.90;99.90;;;;;;5065827;28;20040;-41
2021/06/25 00:40:53;;;;;;;7.97;7.03;;;14.90;99.90;;;;;;5064533;28;20035;-42
2021/06/25 00:43:19;;;;;;;7.97;6.38;;;14.80;99.90;;;;;;5050459;28;20032;-42
2021/06/25 00:45:44;;;;;;;7.38;6.70;;;14.80;99.90;;;;;;5052144;28;20055;-41
2021/06/25 00:48:13;;;;;;;7.35;6.22;;;14.80;99.90;;;;;;5052818;28;20113;-42
2021/06/25 00:50:39;;;;;;;8.55;7.05;;;14.70;99.90;;;;;;5049344;28;20040;-41
2021/06/25 00:53:04;;;;;;;7.57;6.78;;;14.60;99.90;;;;;;5054743;28;20017;-42
2021/06/25 00:55:53;;;;;;;8.40;7.00;;;14.50;99.90;;;;;;5048240;28;20032;-42
2021/06/25 00:58:22;;;;;;;7.80;6.88;;;14.50;99.90;;;;;;5049125;28;20542;-41
2021/06/25 01:00:48;;;;;;;7.70;7.00;;;14.50;99.90;;;;;;5063304;28;20416;-42
2021/06/25 01:03:14;;;;;;;9.45;7.20;;;14.40;99.90;;;;;;5056560;28;20059;-41
2021/06/25 01:05:42;;;;;;;8.00;7.30;;;14.40;99.90;;;;;;5065728;28;20013;-42
2021/06/25 01:08:09;;;;;;;7.63;6.93;;;14.40;99.90;;;;;;5058216;28;20124;-43
2021/06/25 01:10:40;;;;;;;8.05;7.25;;;14.40;99.90;;;;;;5068309;28;20463;-42
2021/06/25 01:13:07;;;;;;;8.25;7.53;;;14.40;99.90;;;;;;5058374;28;20021;-42
2021/06/25 01:15:33;;;;;;;8.25;7.47;;;14.30;99.90;;;;;;5050056;28;20021;-42
2021/06/25 01:17:59;;;;;;;10.77;7.95;;;14.30;99.90;;;;;;5052888;28;20056;-42
2021/06/25 01:20:27;;;;;;;9.00;7.93;;;14.30;99.90;;;;;;5050348;28;20025;-42
2021/06/25 01:22:54;;;;;;;10.23;8.30;;;14.20;99.90;;;;;;5056047;28;20380;-42
2021/06/25 01:25:28;;;;;;;9.05;8.15;;;14.20;99.90;;;;;;5069835;28;20040;-42
2021/06/25 01:27:55;;;;;;;9.65;8.15;;;14.10;99.90;;;;;;5056331;28;20040;-41
2021/06/25 01:30:27;;;;;;;8.73;7.95;;;14.00;99.90;;;;;;5030111;28;20025;-42
2021/06/25 01:32:53;;;;;;;9.25;8.38;;;14.10;99.90;;;;;;5054936;28;20135;-42
2021/06/25 01:35:19;;;;;;;9.23;8.30;;;14.00;99.90;;;;;;5050604;28;20040;-42
2021/06/25 01:37:45;;;;;;;9.40;8.48;;;14.00;99.90;;;;;;5057481;28;20036;-42
2021/06/25 01:40:14;;;;;;;9.95;9.05;;;14.00;99.90;;;;;;5053571;28;20033;-42
2021/06/25 01:42:41;;;;;;;9.52;8.55;;;13.90;99.90;;;;;;5055543;28;20021;-42
2021/06/25 01:45:18;;;;;;;9.95;8.90;;;13.90;99.90;;;;;;5055693;28;20029;-41
2021/06/25 01:47:46;;;;;;;10.05;9.15;;;13.80;99.90;;;;;;5054345;28;20093;-42
2021/06/25 01:50:15;;;;;;;10.43;9.07;;;13.80;99.90;;;;;;5055987;28;20047;-42
2021/06/25 01:53:03;;;;;;;9.98;8.98;;;13.70;99.90;;;;;;5052431;28;20455;-42
2021/06/25 01:55:39;;;;;;;9.60;8.65;;;13.60;99.90;;;;;;5055021;28;20135;-42
2021/06/25 01:58:14;;;;;;;10.18;9.15;;;13.60;99.90;;;;;;5054304;28;20020;-43
2021/06/25 02:00:42;;;;;;;10.23;9.20;;;13.60;99.90;;;;;;5054402;28;20472;-42
2021/06/25 02:03:08;;;;;;;11.57;10.48;;;13.50;99.90;;;;;;5052883;28;20024;-42
2021/06/25 02:05:34;;;;;;;11.30;10.20;;;13.50;99.90;;;;;;5056955;28;20044;-42
2021/06/25 02:07:59;;;;;;;11.35;10.15;;;13.40;99.90;;;;;;5050329;28;20072;-42
2021/06/25 02:10:26;;;;;;;11.65;10.40;;;13.40;99.90;;;;;;5059517;28;20507;-42
2021/06/25 02:12:51;;;;;;;12.15;10.88;;;13.30;99.90;;;;;;5050152;28;20025;-42
2021/06/25 02:15:18;;;;;;;12.75;10.73;;;13.30;99.90;;;;;;5059788;28;20380;-42
2021/06/25 02:17:43;;;;;;;15.43;10.80;;;13.20;99.90;;;;;;5056915;28;20029;-42
2021/06/25 02:20:10;;;;;;;11.35;10.20;;;13.20;99.90;;;;;;5056629;28;20013;-42
2021/06/25 02:22:36;;;;;;;11.85;10.20;;;13.10;99.90;;;;;;5068484;28;20390;-42
2021/06/25 02:25:04;;;;;;;11.43;10.32;;;13.10;99.90;;;;;;5054989;28;20510;-42
2021/06/25 02:27:30;;;;;;;10.88;9.85;;;13.10;99.90;;;;;;5068611;28;20029;-42
2021/06/25 02:29:55;;;;;;;11.45;10.07;;;13.10;99.90;;;;;;5055957;28;20028;-42
2021/06/25 02:32:21;;;;;;;10.93;9.82;;;13.10;99.90;;;;;;5067785;28;20035;-42
2021/06/25 02:34:46;;;;;;;11.32;10.13;;;13.10;99.90;;;;;;5058710;28;20059;-42
2021/06/25 02:37:18;;;;;;;10.30;9.30;;;13.00;99.90;;;;;;5065219;28;20024;-42
2021/06/25 02:39:43;;;;;;;11.02;9.90;;;13.00;99.90;;;;;;5060368;28;20029;-41
2021/06/25 02:42:09;;;;;;;11.10;10.07;;;13.00;99.90;;;;;;5063535;28;20415;-42
2021/06/25 02:44:37;;;;;;;10.68;9.57;;;13.00;99.90;;;;;;5063816;28;20132;-42
2021/06/25 02:47:03;;;;;;;10.75;9.75;;;13.00;99.90;;;;;;5060974;28;20112;-42
2021/06/25 02:49:29;;;;;;;11.20;10.07;;;12.90;99.90;;;;;;5064944;28;20469;-42
2021/06/25 02:51:54;;;;;;;10.93;9.82;;;12.90;99.90;;;;;;5057995;28;20059;-42
2021/06/25 02:54:20;;;;;;;10.57;9.45;;;12.90;99.90;;;;;;5066785;28;20480;-42
2021/06/25 02:56:45;;;;;;;10.82;9.73;;;12.80;99.90;;;;;;5056638;28;20036;-42
2021/06/25 02:59:11;;;;;;;11.23;10.13;;;12.80;99.90;;;;;;5066387;28;20033;-42
2021/06/25 03:01:37;;;;;;;10.52;9.27;;;12.80;99.90;;;;;;5056083;28;20025;-41
2021/06/25 03:04:02;;;;;;;10.82;9.75;;;12.70;99.90;;;;;;5067413;28;20029;-43
2021/06/25 03:06:28;;;;;;;10.85;9.85;;;12.70;99.90;;;;;;5055422;28;20095;-43
2021/06/25 03:08:53;;;;;;;10.80;9.77;;;12.70;99.90;;;;;;5067562;28;20045;-42
2021/06/25 03:11:22;;;;;;;10.95;9.88;;;12.60;99.90;;;;;;5056163;28;20049;-41
2021/06/25 03:13:47;;;;;;;10.23;9.23;;;12.60;99.90;;;;;;5026849;28;20467;-42
2021/06/25 03:16:13;;;;;;;11.23;10.02;;;12.60;99.90;;;;;;5051546;28;20055;-42
2021/06/25 03:18:38;;;;;;;10.63;9.52;;;12.60;99.90;;;;;;5067375;28;20333;-43
2021/06/25 03:21:04;;;;;;;11.85;9.90;;;12.60;99.90;;;;;;5059595;28;20031;-43
2021/06/25 03:23:30;;;;;;;11.25;10.05;;;12.60;99.90;;;;;;5062759;28;20052;-42
2021/06/25 03:25:55;;;;;;;10.77;9.77;;;12.60;99.90;;;;;;5062324;28;20476;-42
2021/06/25 03:28:21;;;;;;;11.10;9.88;;;12.60;99.90;;;;;;5059307;28;20082;-41
2021/06/25 03:30:46;;;;;;;11.50;10.10;;;12.60;99.90;;;;;;5064557;28;20032;-41
2021/06/25 03:33:12;;;;;;;11.82;10.40;;;12.60;99.90;;;;;;5057131;28;20096;-42
2021/06/25 03:35:38;;;;;;;10.75;9.65;;;12.70;99.90;;;;;;5065601;28;20058;-42
2021/06/25 03:38:04;;;;;;;12.20;11.00;;;12.70;99.90;;;;;;5055472;28;20012;-42
2021/06/25 03:40:34;;;;;;;11.57;10.38;;;12.70;99.90;;;;;;5067292;28;20047;-43
2021/06/25 03:43:00;;;;;;;11.85;10.45;;;12.70;99.90;;;;;;5054987;28;20024;-42
2021/06/25 03:45:26;;;;;;;11.70;10.30;;;12.70;99.90;;;;;;5067830;28;20020;-42
2021/06/25 03:47:52;;;;;;;11.23;10.13;;;12.80;99.90;;;;;;5053925;28;20161;-42
2021/06/25 03:50:18;;;;;;;12.00;10.85;;;12.80;99.90;;;;;;5066667;28;20175;-43
2021/06/25 03:52:46;;;;;;;12.48;9.75;;;12.90;99.90;;;;;;5054687;28;20043;-42
2021/06/25 03:55:12;;;;;;;11.80;10.60;;;12.90;99.90;;;;;;5026174;28;20053;-40
2021/06/25 03:57:39;;;;;;;11.73;10.52;;;13.00;99.90;;;;;;5051765;28;20127;-42
2021/06/25 04:00:07;;;;;;;12.75;10.57;;;13.10;99.90;;;;;;5049494;28;20017;-42
2021/06/25 04:02:33;;;;;;;11.90;10.70;;;13.20;99.90;;;;;;5054021;28;20020;-43
2021/06/25 04:04:58;;;;;;;12.05;10.85;;;13.20;99.90;;;;;;5051137;28;20025;-42
2021/06/25 04:07:26;;;;;;;12.25;10.90;;;13.30;99.90;;;;;;5052342;28;20035;-43
2021/06/25 04:09:52;;;;;;;12.80;11.13;;;13.40;99.90;;;;;;5053166;28;20045;-42
2021/06/25 04:12:18;;;;;;;12.25;11.07;;;13.50;99.90;;;;;;5049290;28;20029;-42
2021/06/25 04:14:43;;;;;;;13.95;10.77;;;13.50;99.90;;;;;;5055763;28;20423;-41
2021/06/25 04:17:09;;;;;;;13.15;11.85;;;13.60;99.90;;;;;;5047110;28;20036;-42
2021/06/25 04:19:34;;;;;;;14.35;12.20;;;13.70;99.90;;;;;;5057935;28;20044;-42
2021/06/25 04:22:00;;;;;;;14.35;12.68;;;13.70;99.90;;;;;;5047753;28;20031;-41
2021/06/25 04:24:25;;;;;;;14.32;12.75;;;13.80;99.90;;;;;;5057463;28;20021;-41
2021/06/25 04:26:51;;;;;;;13.80;12.40;;;13.90;99.90;;;;;;5046453;28;20044;-43
2021/06/25 04:29:16;;;;;;;15.13;13.20;;;14.00;99.90;;;;;;5059287;28;20078;-41
2021/06/25 04:31:48;;;;;;;15.68;13.35;;;14.00;99.90;;;;;;5046005;28;20079;-42
2021/06/25 04:34:13;;;;;;;16.50;12.98;;;14.10;99.90;;;;;;5059069;28;20667;-41
2021/06/25 04:36:39;;;;;;;16.20;13.85;;;14.30;99.90;;;;;;5047093;28;20107;-42
2021/06/25 04:39:05;;;;;;;16.85;14.10;;;14.40;99.90;;;;;;5056375;28;20391;-41
2021/06/25 04:41:33;;;;;;;16.05;14.40;;;14.40;99.90;;;;;;5051263;28;20017;-42
2021/06/25 04:43:59;;;;;;;16.63;14.60;;;14.60;99.90;;;;;;5058704;28;20468;-43
2021/06/25 04:46:24;;;;;;;18.60;14.68;;;14.60;99.90;;;;;;5054649;28;20036;-42
2021/06/25 04:48:50;;;;;;;16.33;14.50;;;14.70;99.90;;;;;;5056232;28;20453;-42
2021/06/25 04:51:18;;;;;;;16.17;13.82;;;14.70;99.90;;;;;;5057154;28;20090;-42
2021/06/25 04:53:44;;;;;;;16.35;14.63;;;14.80;99.90;;;;;;5053687;28;20037;-42
2021/06/25 04:56:10;;;;;;;18.05;15.30;;;14.90;99.90;;;;;;5058703;28;20041;-43
2021/06/25 04:58:35;;;;;;;18.35;15.15;;;14.90;99.90;;;;;;5051909;28;20055;-41
2021/06/25 05:01:01;;;;;;;17.08;15.02;;;15.00;99.90;;;;;;5061221;28;20429;-42
2021/06/25 05:03:27;;;;;;;16.23;14.52;;;15.10;99.90;;;;;;5051683;28;20020;-42
2021/06/25 05:05:52;;;;;;;16.98;15.18;;;15.10;99.90;;;;;;5061245;28;20025;-42
2021/06/25 05:08:17;;;;;;;17.83;14.40;;;15.10;99.90;;;;;;5050682;28;20037;-42
2021/06/25 05:10:43;;;;;;;17.75;15.77;;;15.10;99.90;;;;;;5062541;28;20021;-42
2021/06/25 05:13:10;;;;;;;19.65;16.45;;;15.00;99.90;;;;;;5049638;28;20435;-43
2021/06/25 05:15:36;;;;;;;19.75;17.52;;;15.00;99.90;;;;;;5062896;28;20024;-43
2021/06/25 05:18:25;;;;;;;19.83;17.50;;;15.00;99.90;;;;;;5059902;28;20118;-42
2021/06/25 05:21:00;;;;;;;18.80;16.80;;;15.00;99.90;;;;;;5056927;28;20067;-46
2021/06/25 05:23:26;;;;;;;18.58;16.58;;;15.10;99.90;;;;;;5070662;28;20024;-42
2021/06/25 05:25:51;;;;;;;18.60;16.02;;;15.10;99.90;;;;;;5057314;28;20460;-42
2021/06/25 05:28:17;;;;;;;17.73;15.80;;;15.10;99.90;;;;;;5069764;28;20463;-43
2021/06/25 05:30:49;;;;;;;21.10;17.15;;;15.20;99.90;;;;;;5060103;28;20028;-42
2021/06/25 05:33:17;;;;;;;17.50;15.48;;;15.20;99.90;;;;;;5067867;28;20047;-42
2021/06/25 05:35:43;;;;;;;18.83;15.57;;;15.20;99.90;;;;;;5060895;28;20021;-42
2021/06/25 05:38:14;;;;;;;20.13;16.33;;;15.30;99.90;;;;;;5065365;28;20120;-43
2021/06/25 05:40:41;;;;;;;17.65;15.07;;;15.40;99.90;;;;;;5062359;28;20101;-43
2021/06/25 05:43:07;;;;;;;17.42;14.63;;;15.50;99.90;;;;;;5064102;28;20083;-43
2021/06/25 05:45:35;;;;;;;15.20;13.60;;;15.50;99.90;;;;;;5065456;28;20020;-43
2021/06/25 05:48:02;;;;;;;17.05;13.98;;;15.50;99.90;;;;;;5060632;28;20040;-43
2021/06/25 05:50:27;;;;;;;17.40;13.60;;;15.60;99.90;;;;;;5067534;28;20036;-43
2021/06/25 05:52:53;;;;;;;18.10;14.80;;;15.60;99.90;;;;;;5057915;28;20097;-42
2021/06/25 05:55:19;;;;;;;16.83;15.00;;;15.60;99.90;;;;;;5067695;28;20044;-42
2021/06/25 05:57:47;;;;;;;19.30;16.65;;;15.70;99.80;;;;;;5058018;28;20037;-42
2021/06/25 06:00:13;;;;;;;18.77;15.32;;;15.70;99.60;;;;;;5067573;28;20475;-43
2021/06/25 06:02:39;;;;;;;18.92;14.30;;;15.70;99.60;;;;;;5056191;28;20120;-41
2021/06/25 06:05:05;;;;;;;16.98;14.30;;;15.80;99.50;;;;;;5069117;28;20489;-42
2021/06/25 06:07:37;;;;;;;16.05;13.98;;;15.80;99.40;;;;;;5056142;28;20029;-43
2021/06/25 06:10:04;;;;;;;17.10;13.85;;;15.80;99.00;;;;;;5067213;28;20152;-43
2021/06/25 06:12:30;;;;;;;15.77;13.70;;;15.90;99.10;;;;;;5056328;28;20025;-42
2021/06/25 06:14:55;;;;;;;14.48;12.95;;;16.00;99.00;;;;;;5068415;28;20020;-43
2021/06/25 06:17:21;;;;;;;15.20;12.57;;;16.10;98.90;;;;;;5061385;28;20085;-42
2021/06/25 06:19:56;;;;;;;13.15;11.15;;;16.20;98.90;;;;;;5069208;28;20028;-43
2021/06/25 06:33:30;;;;;;;13.35;10.30;;;16.50;98.00;;;;;;5059083;28;20035;-42
2021/06/25 06:35:55;;;;;;;9.57;7.90;;;16.60;98.00;;;;;;5046662;28;20256;-42
2021/06/25 06:38:21;;;;;;;13.80;11.00;;;16.60;97.90;;;;;;5059568;28;20468;-42
2021/06/25 06:40:47;;;;;;;12.48;11.18;;;16.60;97.70;;;;;;5047429;28;20032;-41
2021/06/25 06:43:12;;;;;;;12.45;10.07;;;16.70;97.70;;;;;;5057810;28;20113;-41
2021/06/25 06:45:38;;;;;;;12.95;11.10;;;16.70;97.70;;;;;;5049506;28;20040;-41
2021/06/25 06:48:04;;;;;;;15.40;12.63;;;16.80;97.70;;;;;;5049888;28;20147;-42
2021/06/25 06:50:33;;;;;;;13.63;11.88;;;16.80;97.40;;;;;;5045094;28;20047;-42
2021/06/25 06:52:59;;;;;;;11.88;10.07;;;16.90;97.20;;;;;;5046509;28;20479;-41
2021/06/25 06:55:25;;;;;;;14.35;12.13;;;17.00;97.20;;;;;;5068293;28;20451;-43
2021/06/25 06:57:51;;;;;;;14.38;11.82;;;17.00;96.80;;;;;;5064020;28;20054;-43
2021/06/25 07:00:18;;;;;;;14.77;12.25;;;17.00;96.90;;;;;;5057178;28;20029;-42
2021/06/25 07:02:44;;;;;;;16.00;11.95;;;17.10;96.20;;;;;;5043583;28;20029;-43
2021/06/25 07:05:15;;;;;;;16.02;12.43;;;17.00;96.60;;;;;;5057957;28;20013;-42
2021/06/25 07:07:42;;;;;;;13.65;10.60;;;17.00;96.60;;;;;;5048541;28;20039;-42
2021/06/25 07:10:09;;;;;;;13.07;10.80;;;17.10;96.60;;;;;;5058950;28;20128;-42
2021/06/25 07:12:37;;;;;;;16.77;12.30;;;17.30;96.50;;;;;;5048111;28;20036;-41
2021/06/25 07:15:04;;;;;;;15.23;11.98;;;17.50;96.30;;;;;;5055966;28;20023;-42
2021/06/25 07:17:30;;;;;;;14.05;12.50;;;17.50;96.30;;;;;;5063332;28;20033;-43
2021/06/25 07:19:55;;;;;;;15.15;12.68;;;17.70;96.30;;;;;;5059273;28;20807;-43
2021/06/25 07:22:25;;;;;;;11.93;10.63;;;17.80;96.20;;;;;;5048235;28;20036;-46
2021/06/25 07:24:51;;;;;;;13.45;10.90;;;18.00;96.10;;;;;;5059274;28;20051;-44
2021/06/25 07:27:17;;;;;;;11.52;9.65;;;18.10;96.30;;;;;;5027492;28;20104;-43
2021/06/25 07:29:43;;;;;;;15.60;12.57;;;18.20;95.90;;;;;;5051582;28;20531;-42
2021/06/25 07:32:09;;;;;;;14.50;11.45;;;18.30;95.90;;;;;;5049581;28;20021;-43
2021/06/25 07:34:37;;;;;;;11.68;10.05;;;18.50;95.80;;;;;;5054058;28;20498;-43
2021/06/25 07:37:03;;;;;;;11.95;10.32;;;18.60;95.70;;;;;;5051930;28;20051;-41
2021/06/25 07:39:29;;;;;;;16.45;12.60;;;18.70;95.50;;;;;;5052489;28;20028;-42
2021/06/25 07:41:54;;;;;;;11.43;9.88;;;18.90;95.60;;;;;;5053761;28;20371;-39
2021/06/25 07:44:20;;;;;;;15.63;13.70;;;19.00;95.50;;;;;;5049603;28;20444;-42
2021/06/25 07:46:46;;;;;;;18.75;13.65;;;19.10;95.40;;;;;;5056839;28;20083;-41
2021/06/25 07:49:11;;;;;;;17.27;13.65;;;19.10;95.40;;;;;;5047873;28;20111;-42
2021/06/25 07:51:37;;;;;;;15.68;13.95;;;19.10;95.30;;;;;;5058229;28;20055;-42
2021/06/25 07:54:02;;;;;;;15.90;14.15;;;19.00;95.10;;;;;;5047143;28;20453;-39
2021/06/25 07:56:28;;;;;;;17.88;13.88;;;18.90;95.40;;;;;;5058522;28;20459;-41
2021/06/25 07:58:55;;;;;;;18.23;15.93;;;18.80;95.60;;;;;;5046649;28;20029;-42
2021/06/25 08:01:22;;;;;;;18.45;15.95;;;18.60;95.50;;;;;;5056216;28;20033;-42
2021/06/25 08:03:48;;;;;;;17.50;13.95;;;18.50;95.80;;;;;;5029616;28;20477;-41
2021/06/25 08:06:14;;;;;;;21.90;17.38;;;18.40;95.90;;;;;;5055516;28;20029;-42
2021/06/25 08:08:39;;;;;;;24.58;18.92;;;18.30;96.00;;;;;;5026928;28;20572;-41
2021/06/25 08:11:05;;;;;;;19.95;17.25;;;18.20;96.10;;;;;;5050778;28;20021;-43
2021/06/25 08:13:30;;;;;;;20.88;17.05;;;18.10;96.20;;;;;;5049977;28;20029;-42
2021/06/25 08:15:56;;;;;;;24.23;19.38;;;18.10;96.30;;;;;;5052320;28;20017;-42
2021/06/25 08:18:22;;;;;;;21.25;18.02;;;18.00;96.30;;;;;;5062367;28;20019;-42
2021/06/25 08:20:48;;;;;;;19.45;15.90;;;18.00;96.40;;;;;;5047101;28;20074;-42
2021/06/25 08:23:16;;;;;;;18.27;14.98;;;17.90;96.50;;;;;;5040918;28;20021;-42
2021/06/25 08:25:45;;;;;;;25.33;19.05;;;17.90;96.60;;;;;;5034781;28;20029;-42
2021/06/25 08:28:11;;;;;;;20.95;18.48;;;17.90;96.60;;;;;;5056631;28;20040;-44
2021/06/25 08:30:37;;;;;;;21.10;17.73;;;17.80;96.70;;;;;;5044801;28;20032;-43
2021/06/25 08:33:05;;;;;;;21.70;17.70;;;17.90;96.80;;;;;;5056098;28;20025;-42
2021/06/25 08:35:31;;;;;;;25.00;19.73;;;17.80;96.80;;;;;;5048371;28;20036;-41
2021/06/25 08:37:57;;;;;;;22.63;19.02;;;17.90;96.90;;;;;;5056723;28;20025;-41
2021/06/25 08:40:22;;;;;;;22.85;19.50;;;17.80;96.90;;;;;;5047041;28;20108;-42
2021/06/25 08:42:51;;;;;;;24.58;19.63;;;17.80;97.00;;;;;;5057072;28;20752;-43
2021/06/25 08:45:17;;;;;;;21.98;17.98;;;17.80;97.10;;;;;;5045997;28;20032;-41
2021/06/25 08:47:46;;;;;;;22.13;16.30;;;17.80;97.10;;;;;;5058546;28;20043;-42
2021/06/25 08:50:13;;;;;;;20.98;16.20;;;17.80;97.10;;;;;;5046604;28;20063;-43
2021/06/25 08:52:46;;;;;;;23.05;18.70;;;17.90;97.20;;;;;;5057513;28;20040;-42
2021/06/25 08:55:19;;;;;;;22.77;18.75;;;18.00;97.20;;;;;;5046173;28;20040;-42
2021/06/25 08:57:50;;;;;;;19.77;15.57;;;18.00;97.20;;;;;;5056386;28;20021;-44
2021/06/25 09:00:17;;;;;;;23.55;17.92;;;18.10;97.50;;;;;;5045324;28;20028;-42
2021/06/25 09:02:45;;;;;;;16.90;14.57;;;18.10;97.20;;;;;;5048505;28;20119;-42
2021/06/25 09:05:32;;;;;;;24.30;19.10;;;18.20;97.20;;;;;;5049110;28;20029;-41
2021/06/25 09:07:58;;;;;;;23.48;19.38;;;18.20;97.30;;;;;;5046606;28;20033;-41
2021/06/25 09:10:39;;;;;;;21.58;17.98;;;18.40;97.20;;;;;;5038024;28;20026;-42
2021/06/25 09:13:10;;;;;;;24.23;20.23;;;18.40;97.10;;;;;;5047399;28;20025;-42
2021/06/25 09:15:38;;;;;;;18.65;15.98;;;18.50;97.10;;;;;;5048625;28;20104;-43
2021/06/25 09:18:06;;;;;;;24.65;20.08;;;18.50;97.10;;;;;;5054512;28;20629;-43
2021/06/25 09:20:40;;;;;;;18.10;15.25;;;18.50;97.10;;;;;;5063821;28;20149;-43
2021/06/25 09:23:27;;;;;;;23.40;18.98;;;18.60;97.10;;;;;;5059072;28;20040;-43
2021/06/25 09:25:56;;;;;;;18.25;14.70;;;18.60;97.00;;;;;;5062642;28;20033;-43
2021/06/25 09:28:36;;;;;;;20.65;17.13;;;18.70;97.10;;;;;;5062146;28;20374;-42
2021/06/25 09:31:18;;;;;;;21.83;16.48;;;18.70;97.00;;;;;;5065653;28;20082;-42
2021/06/25 09:33:49;;;;;;;21.58;17.27;;;18.80;97.00;;;;;;5062428;28;20393;-43
2021/06/25 09:36:28;;;;;;;16.13;12.95;;;19.00;96.90;;;;;;5049226;28;20052;-42
2021/06/25 09:39:02;;;;;;;19.88;16.33;;;19.10;96.80;;;;;;5057799;28;20060;-43
2021/06/25 09:41:29;;;;;;;18.23;14.85;;;19.40;96.60;;;;;;5051727;28;20069;-41
2021/06/25 09:44:00;;;;;;;21.38;16.33;;;19.60;96.40;;;;;;5056172;28;20063;-43
2021/06/25 09:46:29;;;;;;;19.90;16.30;;;19.80;96.20;;;;;;5053451;28;20445;-42
2021/06/25 09:48:58;;;;;;;19.15;16.20;;;19.90;96.10;;;;;;5055266;28;20012;-42
2021/06/25 09:51:24;;;;;;;21.70;17.05;;;20.00;95.50;;;;;;5055527;28;20139;-41
2021/06/25 09:54:10;;;;;;;22.33;16.58;;;20.10;95.30;;;;;;5052662;28;20052;-40
2021/06/25 09:56:39;;;;;;;16.33;13.40;;;20.20;95.00;;;;;;5052196;28;20029;-43
2021/06/25 10:02:22;;;;;;;17.88;14.60;;;20.30;94.90;;;;;;5051368;28;20041;-43
2021/06/25 10:04:55;;;;;;;20.08;16.25;;;20.30;94.90;;;;;;5046381;28;20142;-42
2021/06/25 10:07:22;;;;;;;28.08;16.60;;;20.20;94.70;;;;;;5064968;28;20037;-42
2021/06/25 10:09:50;;;;;;;20.35;15.40;;;20.20;94.60;;;;;;5060776;28;20630;-42
2021/06/25 10:12:18;;;;;;;19.02;16.05;;;20.10;94.60;;;;;;5064808;28;20024;-42
2021/06/25 10:14:45;;;;;;;15.85;14.15;;;20.00;94.40;;;;;;5063053;28;20167;-43
2021/06/25 10:17:12;;;;;;;16.92;14.20;;;20.00;94.20;;;;;;5060673;28;20027;-42
2021/06/25 10:20:03;;;;;;;16.65;14.07;;;20.00;94.30;;;;;;5052700;28;20479;-43
2021/06/25 10:22:29;;;;;;;18.38;15.13;;;19.90;94.50;;;;;;5047199;28;20182;-42
2021/06/25 10:24:56;;;;;;;18.33;14.02;;;19.90;94.50;;;;;;5052720;28;20023;-42
2021/06/25 10:27:23;;;;;;;16.30;13.15;;;19.80;94.30;;;;;;5056851;28;20127;-43
2021/06/25 10:29:50;;;;;;;20.05;17.08;;;19.70;94.50;;;;;;5048348;28;20036;-41
2021/06/25 10:32:17;;;;;;;17.10;14.27;;;19.60;94.70;;;;;;5048412;28;20024;-43
2021/06/25 10:34:43;;;;;;;17.95;15.68;;;19.50;94.90;;;;;;5067356;28;20538;-42
2021/06/25 10:37:13;;;;;;;18.08;16.08;;;19.40;95.10;;;;;;5056525;28;20472;-43
2021/06/25 10:39:39;;;;;;;16.92;14.40;;;19.40;95.20;;;;;;5066525;28;20036;-43
2021/06/25 10:42:10;;;;;;;23.25;18.65;;;19.40;95.40;;;;;;5056721;28;20024;-42
2021/06/25 10:44:45;;;;;;;19.02;15.57;;;19.40;95.40;;;;;;5066936;28;20589;-42
2021/06/25 10:47:23;;;;;;;17.77;14.38;;;19.60;95.40;;;;;;5056396;28;20045;-41
2021/06/25 10:50:05;;;;;;;22.55;17.13;;;19.80;95.30;;;;;;5067891;28;20029;-42
2021/06/25 10:52:40;;;;;;;17.30;15.05;;;20.10;95.10;;;;;;5050928;28;20036;-42
2021/06/25 10:55:16;;;;;;;19.58;15.95;;;20.30;95.00;;;;;;5049433;28;20025;-42
2021/06/25 10:57:53;;;;;;;19.13;15.65;;;20.50;94.80;;;;;;5055918;28;20127;-42
2021/06/25 11:00:40;;;;;;;20.02;16.73;;;20.60;94.40;;;;;;5049585;28;20100;-42
2021/06/25 11:03:06;;;;;;;22.40;17.42;;;20.80;94.40;;;;;;5057995;28;20465;-42
2021/06/25 11:05:33;;;;;;;19.83;16.85;;;21.00;94.20;;;;;;5049496;28;20024;-42
2021/06/25 11:08:15;;;;;;;16.05;14.23;;;21.20;93.90;;;;;;5057645;28;20037;-43
2021/06/25 11:10:49;;;;;;;23.02;19.10;;;21.20;93.80;;;;;;5049102;28;20035;-42
2021/06/25 11:13:16;;;;;;;22.33;16.55;;;21.20;93.40;;;;;;5058664;28;20025;-43
2021/06/25 11:15:47;;;;;;;18.45;15.27;;;21.30;93.60;;;;;;5048060;28;20119;-42
2021/06/25 11:18:17;;;;;;;15.57;13.85;;;21.40;93.70;;;;;;5056274;28;20031;-42
2021/06/25 11:20:48;;;;;;;15.38;13.77;;;21.60;93.60;;;;;;5047926;28;20116;-42
2021/06/25 11:23:27;;;;;;;22.90;18.83;;;21.70;93.40;;;;;;5060092;28;20074;-43
2021/06/25 11:25:57;;;;;;;14.95;13.30;;;21.80;93.00;;;;;;5047629;28;20032;-43
2021/06/25 11:28:37;;;;;;;19.95;17.52;;;21.90;93.10;;;;;;5055464;28;20052;-43
2021/06/25 11:31:20;;;;;;;17.20;15.45;;;22.00;92.90;;;;;;5067484;28;20020;-43
2021/06/25 11:33:51;;;;;;;15.05;12.50;;;22.00;92.80;;;;;;5055830;28;20043;-43
2021/06/25 11:36:33;;;;;;;20.73;15.03;;;22.10;92.80;;;;;;5067554;28;20032;-43
2021/06/25 11:39:05;;;;;;;16.35;13.75;;;22.20;92.90;;;;;;5054808;28;20275;-43
2021/06/25 11:41:56;;;;;;;17.38;13.27;;;22.30;93.00;;;;;;5047535;28;20075;-43
2021/06/25 11:44:32;;;;;;;15.55;13.00;;;22.50;93.00;;;;;;5058582;28;20083;-43
2021/06/25 11:47:01;;;;;;;16.50;14.73;;;22.60;92.90;;;;;;5048049;28;20147;-43
2021/06/25 11:49:37;;;;;;;15.32;13.68;;;22.80;92.80;;;;;;5058459;28;20371;-43
2021/06/25 11:52:05;;;;;;;17.20;13.70;;;22.80;92.60;;;;;;5048341;28;20021;-42
2021/06/25 11:54:34;;;;;;;12.60;11.25;;;22.80;92.70;;;;;;5058000;28;20100;-42
2021/06/25 11:56:59;;;;;;;14.43;12.93;;;22.70;92.60;;;;;;5034004;28;20402;-42
2021/06/25 11:59:25;;;;;;;11.68;10.45;;;22.70;92.40;;;;;;5054203;28;20079;-42
2021/06/25 12:01:53;;;;;;;17.75;14.95;;;22.70;92.60;;;;;;5066595;28;20051;-41
2021/06/25 12:04:42;;;;;;;14.80;12.50;;;22.70;92.50;;;;;;5053274;28;20790;-42
2021/06/25 12:07:13;;;;;;;13.07;11.77;;;22.60;92.70;;;;;;5066724;28;20035;-42
2021/06/25 12:09:46;;;;;;;19.13;13.60;;;22.70;92.70;;;;;;5053010;28;20752;-42
2021/06/25 12:12:23;;;;;;;22.13;16.42;;;22.70;92.60;;;;;;5067052;28;20079;-42
2021/06/25 12:14:58;;;;;;;15.05;13.55;;;22.70;92.40;;;;;;5054007;28;20013;-42
2021/06/25 12:17:24;;;;;;;14.07;12.30;;;22.70;92.50;;;;;;5067311;28;20028;-40
2021/06/25 12:19:57;;;;;;;15.63;12.27;;;22.70;92.60;;;;;;5059234;28;20032;-41
2021/06/25 12:22:23;;;;;;;14.75;11.80;;;22.80;92.60;;;;;;5046199;28;20503;-42
2021/06/25 12:24:51;;;;;;;12.23;10.32;;;22.80;92.50;;;;;;5058903;28;20029;-42
2021/06/25 12:27:17;;;;;;;12.38;10.23;;;22.80;92.30;;;;;;5046731;28;20484;-42
2021/06/25 12:29:46;;;;;;;11.10;9.32;;;22.80;92.20;;;;;;5056075;28;20028;-43
2021/06/25 12:32:19;;;;;;;9.18;8.25;;;22.80;92.00;;;;;;5048165;28;20502;-42
2021/06/25 12:34:46;;;;;;;11.60;8.55;;;22.80;90.60;;;;;;5049023;28;20029;-42
2021/06/25 12:37:15;;;;;;;11.05;8.65;;;22.80;91.30;;;;;;5062992;28;20028;-43
2021/06/25 12:39:44;;;;;;;10.25;8.70;;;22.90;91.30;;;;;;5059866;28;20025;-43
2021/06/25 12:42:10;;;;;;;9.10;6.78;;;23.10;91.10;;;;;;5061342;28;20044;-43
2021/06/25 12:44:36;;;;;;;9.93;7.50;;;23.20;90.70;;;;;;5061231;28;20025;-43
2021/06/25 12:47:03;;;;;;;18.25;12.80;;;23.20;90.20;;;;;;5058045;28;20127;-42
2021/06/25 12:49:34;;;;;;;12.07;9.20;;;23.30;89.80;;;;;;5063942;28;20070;-42
2021/06/25 12:52:00;;;;;;;11.38;9.20;;;23.40;88.80;;;;;;5056796;28;20468;-42